sensor_id;sensor_type;location;lat;lon;timestamp;pressure;altitude;pressure_sealevel;temperature;humidity
9935;BME280;5006;41.828;23.478;2023-04-20T00:00:15;89916.34;;;14.07;63.47
9935;BME280;5006;41.828;23.478;2023-04-20T00:01:21;89915.94;;;13.89;63.79
9935;BME280;5006;41.828;23.478;2023-04-20T00:02:26;89920.78;;;13.78;64.51
9935;BME280;5006;41.828;23.478;2023-04-20T00:03:32;89917.41;;;13.74;64.83
9935;BME280;5006;41.828;23.478;2023-04-20T00:04:38;89916.38;;;14.26;63.64
9935;BME280;5006;41.828;23.478;2023-04-20T00:05:44;89911.44;;;14.02;63.31
9935;BME280;5006;41.828;23.478;2023-04-20T00:06:51;89908.94;;;14.11;64.18
9935;BME280;5006;41.828;23.478;2023-04-20T00:07:57;89909.28;;;14.32;64.10
9935;BME280;5006;41.828;23.478;2023-04-20T00:09:02;89912.56;;;13.85;64.79
9935;BME280;5006;41.828;23.478;2023-04-20T00:10:09;89913.94;;;14.12;64.06
9935;BME280;5006;41.828;23.478;2023-04-20T00:11:14;89908.28;;;14.26;63.95
9935;BME280;5006;41.828;23.478;2023-04-20T00:12:20;89904.59;;;13.97;65.21
9935;BME280;5006;41.828;23.478;2023-04-20T00:13:25;89911.66;;;14.46;63.69
9935;BME280;5006;41.828;23.478;2023-04-20T00:14:31;89914.63;;;13.97;65.06
9935;BME280;5006;41.828;23.478;2023-04-20T00:15:36;89901.88;;;13.39;66.54
9935;BME280;5006;41.828;23.478;2023-04-20T00:16:42;89911.63;;;13.33;67.00
9935;BME280;5006;41.828;23.478;2023-04-20T00:17:48;89905.28;;;14.01;65.79
9935;BME280;5006;41.828;23.478;2023-04-20T00:18:55;89905.63;;;14.23;64.98
9935;BME280;5006;41.828;23.478;2023-04-20T00:20:02;89897.69;;;13.15;66.50
9935;BME280;5006;41.828;23.478;2023-04-20T00:21:08;89905.91;;;13.31;67.89
9935;BME280;5006;41.828;23.478;2023-04-20T00:22:15;89902.97;;;13.22;68.02
9935;BME280;5006;41.828;23.478;2023-04-20T00:23:21;89910.19;;;13.05;68.50
9935;BME280;5006;41.828;23.478;2023-04-20T00:24:26;89911.03;;;13.64;67.52
9935;BME280;5006;41.828;23.478;2023-04-20T00:25:32;89906.41;;;13.03;67.65
9935;BME280;5006;41.828;23.478;2023-04-20T00:26:38;89903.97;;;12.86;68.80
9935;BME280;5006;41.828;23.478;2023-04-20T00:27:45;89898.59;;;13.51;68.66
9935;BME280;5006;41.828;23.478;2023-04-20T00:28:50;89901.59;;;13.33;68.07
9935;BME280;5006;41.828;23.478;2023-04-20T00:29:56;89893.97;;;13.71;67.67
9935;BME280;5006;41.828;23.478;2023-04-20T00:31:02;89903.13;;;12.88;68.72
9935;BME280;5006;41.828;23.478;2023-04-20T00:32:08;89892.38;;;12.88;68.99
9935;BME280;5006;41.828;23.478;2023-04-20T00:33:13;89894.06;;;12.79;68.64
9935;BME280;5006;41.828;23.478;2023-04-20T00:34:20;89888.19;;;13.10;68.13
9935;BME280;5006;41.828;23.478;2023-04-20T00:35:25;89891.19;;;12.93;68.63
9935;BME280;5006;41.828;23.478;2023-04-20T00:36:32;89885.66;;;13.00;68.51
9935;BME280;5006;41.828;23.478;2023-04-20T00:37:38;89884.19;;;12.73;68.57
9935;BME280;5006;41.828;23.478;2023-04-20T00:38:45;89886.41;;;12.78;68.94
9935;BME280;5006;41.828;23.478;2023-04-20T00:39:49;89887.75;;;12.66;68.99
9935;BME280;5006;41.828;23.478;2023-04-20T00:40:55;89894.72;;;12.87;68.26
9935;BME280;5006;41.828;23.478;2023-04-20T00:42:04;89886.22;;;13.53;67.00
9935;BME280;5006;41.828;23.478;2023-04-20T00:43:11;89880.69;;;12.49;68.38
9935;BME280;5006;41.828;23.478;2023-04-20T00:44:16;89883.50;;;12.42;69.78
9935;BME280;5006;41.828;23.478;2023-04-20T00:45:23;89887.06;;;12.09;70.49
9935;BME280;5006;41.828;23.478;2023-04-20T00:46:28;89882.34;;;12.17;70.12
9935;BME280;5006;41.828;23.478;2023-04-20T00:47:35;89882.66;;;11.96;70.72
9935;BME280;5006;41.828;23.478;2023-04-20T00:48:42;89885.22;;;11.76;71.67
9935;BME280;5006;41.828;23.478;2023-04-20T00:49:48;89883.31;;;11.73;71.73
9935;BME280;5006;41.828;23.478;2023-04-20T00:50:54;89885.09;;;11.83;72.15
9935;BME280;5006;41.828;23.478;2023-04-20T00:52:01;89880.50;;;12.10;71.39
9935;BME280;5006;41.828;23.478;2023-04-20T00:53:08;89880.00;;;12.19;71.04
9935;BME280;5006;41.828;23.478;2023-04-20T00:54:14;89881.47;;;12.23;70.50
9935;BME280;5006;41.828;23.478;2023-04-20T00:55:21;89880.94;;;12.09;71.27
9935;BME280;5006;41.828;23.478;2023-04-20T00:56:27;89880.72;;;11.96;71.69
9935;BME280;5006;41.828;23.478;2023-04-20T00:57:32;89880.41;;;11.91;71.73
9935;BME280;5006;41.828;23.478;2023-04-20T00:58:41;89876.78;;;12.04;71.98
9935;BME280;5006;41.828;23.478;2023-04-20T00:59:46;89880.81;;;11.89;71.57
9935;BME280;5006;41.828;23.478;2023-04-20T01:00:52;89877.59;;;11.71;71.73
9935;BME280;5006;41.828;23.478;2023-04-20T01:01:57;89878.84;;;11.63;71.73
9935;BME280;5006;41.828;23.478;2023-04-20T01:03:03;89870.34;;;11.68;72.04
9935;BME280;5006;41.828;23.478;2023-04-20T01:04:09;89886.00;;;11.40;72.39
9935;BME280;5006;41.828;23.478;2023-04-20T01:05:16;89879.06;;;11.42;72.38
9935;BME280;5006;41.828;23.478;2023-04-20T01:06:21;89877.38;;;11.22;73.49
9935;BME280;5006;41.828;23.478;2023-04-20T01:07:27;89879.53;;;11.97;71.79
9935;BME280;5006;41.828;23.478;2023-04-20T01:08:35;89873.38;;;12.27;70.30
9935;BME280;5006;41.828;23.478;2023-04-20T01:09:42;89880.00;;;11.92;70.81
9935;BME280;5006;41.828;23.478;2023-04-20T01:10:47;89876.75;;;11.44;72.88
9935;BME280;5006;41.828;23.478;2023-04-20T01:11:53;89877.84;;;11.50;73.69
9935;BME280;5006;41.828;23.478;2023-04-20T01:12:58;89874.09;;;11.07;74.40
9935;BME280;5006;41.828;23.478;2023-04-20T01:14:05;89884.47;;;11.02;74.14
9935;BME280;5006;41.828;23.478;2023-04-20T01:15:11;89882.88;;;11.45;74.13
9935;BME280;5006;41.828;23.478;2023-04-20T01:16:17;89881.03;;;11.38;73.45
9935;BME280;5006;41.828;23.478;2023-04-20T01:17:22;89876.53;;;11.28;74.23
9935;BME280;5006;41.828;23.478;2023-04-20T01:18:40;89874.53;;;11.69;73.63
9935;BME280;5006;41.828;23.478;2023-04-20T01:19:45;89874.28;;;12.43;71.11
9935;BME280;5006;41.828;23.478;2023-04-20T01:20:52;89879.19;;;12.98;69.43
9935;BME280;5006;41.828;23.478;2023-04-20T01:21:58;89874.22;;;12.47;70.51
9935;BME280;5006;41.828;23.478;2023-04-20T01:23:06;89879.13;;;12.52;69.22
9935;BME280;5006;41.828;23.478;2023-04-20T01:24:11;89876.97;;;12.89;69.40
9935;BME280;5006;41.828;23.478;2023-04-20T01:25:18;89876.84;;;12.99;68.97
9935;BME280;5006;41.828;23.478;2023-04-20T01:26:24;89878.78;;;12.50;69.07
9935;BME280;5006;41.828;23.478;2023-04-20T01:27:30;89879.47;;;12.04;70.85
9935;BME280;5006;41.828;23.478;2023-04-20T01:28:39;89874.06;;;11.44;72.32
9935;BME280;5006;41.828;23.478;2023-04-20T01:29:45;89872.22;;;11.71;72.19
9935;BME280;5006;41.828;23.478;2023-04-20T01:30:50;89866.97;;;11.91;72.17
9935;BME280;5006;41.828;23.478;2023-04-20T01:31:56;89871.78;;;11.76;71.92
9935;BME280;5006;41.828;23.478;2023-04-20T01:33:02;89864.59;;;11.96;71.14
9935;BME280;5006;41.828;23.478;2023-04-20T01:34:08;89871.59;;;11.60;71.52
9935;BME280;5006;41.828;23.478;2023-04-20T01:35:13;89864.63;;;11.66;72.49
9935;BME280;5006;41.828;23.478;2023-04-20T01:36:22;89865.13;;;11.54;72.35
9935;BME280;5006;41.828;23.478;2023-04-20T01:37:28;89866.41;;;12.03;71.64
9935;BME280;5006;41.828;23.478;2023-04-20T01:38:36;89861.75;;;11.47;72.35
9935;BME280;5006;41.828;23.478;2023-04-20T01:39:41;89869.84;;;12.30;71.23
9935;BME280;5006;41.828;23.478;2023-04-20T01:40:50;89865.91;;;11.85;71.53
9935;BME280;5006;41.828;23.478;2023-04-20T01:41:55;89866.31;;;11.83;71.72
9935;BME280;5006;41.828;23.478;2023-04-20T01:43:02;89862.13;;;11.79;70.83
9935;BME280;5006;41.828;23.478;2023-04-20T01:44:07;89870.53;;;11.51;71.82
9935;BME280;5006;41.828;23.478;2023-04-20T01:45:14;89867.13;;;11.80;71.48
9935;BME280;5006;41.828;23.478;2023-04-20T01:46:18;89866.84;;;12.01;70.45
9935;BME280;5006;41.828;23.478;2023-04-20T01:47:25;89872.38;;;11.57;71.01
9935;BME280;5006;41.828;23.478;2023-04-20T01:48:30;89866.06;;;12.27;69.32
9935;BME280;5006;41.828;23.478;2023-04-20T01:49:36;89853.91;;;12.19;68.84
9935;BME280;5006;41.828;23.478;2023-04-20T01:50:41;89858.22;;;11.53;69.97
9935;BME280;5006;41.828;23.478;2023-04-20T01:51:50;89859.13;;;11.73;69.66
9935;BME280;5006;41.828;23.478;2023-04-20T01:52:54;89852.44;;;11.25;70.70
9935;BME280;5006;41.828;23.478;2023-04-20T01:54:02;89855.19;;;11.81;69.86
9935;BME280;5006;41.828;23.478;2023-04-20T01:55:07;89858.25;;;10.83;71.33
9935;BME280;5006;41.828;23.478;2023-04-20T01:56:15;89861.78;;;10.73;73.35
9935;BME280;5006;41.828;23.478;2023-04-20T01:57:20;89849.25;;;11.33;71.85
9935;BME280;5006;41.828;23.478;2023-04-20T01:58:26;89843.97;;;11.60;70.25
9935;BME280;5006;41.828;23.478;2023-04-20T01:59:32;89852.25;;;11.72;69.24
9935;BME280;5006;41.828;23.478;2023-04-20T02:00:39;89850.28;;;12.03;68.73
9935;BME280;5006;41.828;23.478;2023-04-20T02:01:44;89854.50;;;12.30;67.61
9935;BME280;5006;41.828;23.478;2023-04-20T02:02:50;89844.81;;;12.10;68.06
9935;BME280;5006;41.828;23.478;2023-04-20T02:03:55;89845.56;;;12.10;67.83
9935;BME280;5006;41.828;23.478;2023-04-20T02:05:01;89845.16;;;11.85;68.66
9935;BME280;5006;41.828;23.478;2023-04-20T02:06:06;89844.38;;;11.58;69.34
9935;BME280;5006;41.828;23.478;2023-04-20T02:07:13;89845.09;;;11.62;69.75
9935;BME280;5006;41.828;23.478;2023-04-20T02:08:18;89842.88;;;11.54;68.90
9935;BME280;5006;41.828;23.478;2023-04-20T02:09:25;89833.59;;;11.28;70.04
9935;BME280;5006;41.828;23.478;2023-04-20T02:10:30;89839.28;;;11.00;70.59
9935;BME280;5006;41.828;23.478;2023-04-20T02:11:36;89851.09;;;10.69;71.77
9935;BME280;5006;41.828;23.478;2023-04-20T02:12:43;89852.19;;;11.12;70.91
9935;BME280;5006;41.828;23.478;2023-04-20T02:13:49;89854.44;;;11.17;71.08
9935;BME280;5006;41.828;23.478;2023-04-20T02:14:55;89843.63;;;11.24;69.86
9935;BME280;5006;41.828;23.478;2023-04-20T02:16:03;89850.13;;;11.23;70.04
9935;BME280;5006;41.828;23.478;2023-04-20T02:17:08;89841.66;;;11.28;70.12
9935;BME280;5006;41.828;23.478;2023-04-20T02:18:15;89853.41;;;11.08;70.37
9935;BME280;5006;41.828;23.478;2023-04-20T02:19:20;89839.59;;;11.39;70.46
9935;BME280;5006;41.828;23.478;2023-04-20T02:20:27;89840.06;;;11.94;68.18
9935;BME280;5006;41.828;23.478;2023-04-20T02:21:31;89848.47;;;11.96;68.31
9935;BME280;5006;41.828;23.478;2023-04-20T02:22:37;89851.63;;;11.91;67.81
9935;BME280;5006;41.828;23.478;2023-04-20T02:23:42;89854.03;;;11.19;69.33
9935;BME280;5006;41.828;23.478;2023-04-20T02:24:50;89844.44;;;11.51;69.23
9935;BME280;5006;41.828;23.478;2023-04-20T02:25:55;89843.88;;;11.33;69.59
9935;BME280;5006;41.828;23.478;2023-04-20T02:27:01;89851.28;;;11.89;68.50
9935;BME280;5006;41.828;23.478;2023-04-20T02:28:07;89848.59;;;11.89;68.31
9935;BME280;5006;41.828;23.478;2023-04-20T02:29:16;89849.25;;;11.67;68.29
9935;BME280;5006;41.828;23.478;2023-04-20T02:30:21;89847.59;;;11.09;69.74
9935;BME280;5006;41.828;23.478;2023-04-20T02:31:27;89843.78;;;11.74;69.82
9935;BME280;5006;41.828;23.478;2023-04-20T02:32:33;89850.59;;;12.08;67.45
9935;BME280;5006;41.828;23.478;2023-04-20T02:33:39;89850.59;;;11.48;68.82
9935;BME280;5006;41.828;23.478;2023-04-20T02:34:44;89842.50;;;10.85;71.17
9935;BME280;5006;41.828;23.478;2023-04-20T02:35:50;89845.63;;;11.50;69.15
9935;BME280;5006;41.828;23.478;2023-04-20T02:36:55;89842.72;;;11.68;68.67
9935;BME280;5006;41.828;23.478;2023-04-20T02:38:01;89855.00;;;11.95;68.33
9935;BME280;5006;41.828;23.478;2023-04-20T02:39:06;89839.28;;;12.20;67.99
9935;BME280;5006;41.828;23.478;2023-04-20T02:40:15;89851.72;;;11.21;69.59
9935;BME280;5006;41.828;23.478;2023-04-20T02:41:20;89845.50;;;11.61;69.77
9935;BME280;5006;41.828;23.478;2023-04-20T02:42:26;89849.53;;;12.02;67.82
9935;BME280;5006;41.828;23.478;2023-04-20T02:43:33;89851.63;;;11.91;68.42
9935;BME280;5006;41.828;23.478;2023-04-20T02:44:41;89845.44;;;11.94;68.56
9935;BME280;5006;41.828;23.478;2023-04-20T02:45:46;89855.56;;;12.36;67.77
9935;BME280;5006;41.828;23.478;2023-04-20T02:46:53;89850.44;;;12.45;67.47
9935;BME280;5006;41.828;23.478;2023-04-20T02:47:59;89853.81;;;12.49;67.65
9935;BME280;5006;41.828;23.478;2023-04-20T02:49:09;89849.50;;;12.55;67.27
9935;BME280;5006;41.828;23.478;2023-04-20T02:50:18;89849.72;;;12.41;67.26
9935;BME280;5006;41.828;23.478;2023-04-20T02:51:43;89851.81;;;12.76;67.11
9935;BME280;5006;41.828;23.478;2023-04-20T02:52:49;89852.84;;;12.36;67.18
9935;BME280;5006;41.828;23.478;2023-04-20T02:53:54;89854.34;;;12.41;67.37
9935;BME280;5006;41.828;23.478;2023-04-20T02:55:06;89856.75;;;12.81;66.29
9935;BME280;5006;41.828;23.478;2023-04-20T02:56:13;89848.81;;;12.25;66.74
9935;BME280;5006;41.828;23.478;2023-04-20T02:57:26;89858.22;;;12.13;67.64
9935;BME280;5006;41.828;23.478;2023-04-20T02:58:33;89855.47;;;11.90;69.03
9935;BME280;5006;41.828;23.478;2023-04-20T02:59:59;89851.06;;;11.73;68.85
9935;BME280;5006;41.828;23.478;2023-04-20T03:01:16;89851.63;;;11.61;69.34
9935;BME280;5006;41.828;23.478;2023-04-20T03:02:24;89855.34;;;11.97;69.06
9935;BME280;5006;41.828;23.478;2023-04-20T03:03:31;89857.00;;;11.61;69.34
9935;BME280;5006;41.828;23.478;2023-04-20T03:04:38;89853.69;;;11.80;70.07
9935;BME280;5006;41.828;23.478;2023-04-20T03:05:48;89848.53;;;11.63;69.32
9935;BME280;5006;41.828;23.478;2023-04-20T03:06:54;89850.66;;;12.05;69.02
9935;BME280;5006;41.828;23.478;2023-04-20T03:08:05;89853.69;;;12.07;69.01
9935;BME280;5006;41.828;23.478;2023-04-20T03:09:11;89850.41;;;11.66;69.83
9935;BME280;5006;41.828;23.478;2023-04-20T03:10:33;89851.16;;;11.96;68.84
9935;BME280;5006;41.828;23.478;2023-04-20T03:11:50;89851.13;;;12.26;68.27
9935;BME280;5006;41.828;23.478;2023-04-20T03:13:09;89850.25;;;12.33;67.56
9935;BME280;5006;41.828;23.478;2023-04-20T03:14:28;89850.00;;;12.92;66.89
9935;BME280;5006;41.828;23.478;2023-04-20T03:15:35;89841.63;;;12.18;69.10
9935;BME280;5006;41.828;23.478;2023-04-20T03:16:57;89842.53;;;12.58;68.76
9935;BME280;5006;41.828;23.478;2023-04-20T03:18:03;89847.31;;;12.24;68.41
9935;BME280;5006;41.828;23.478;2023-04-20T03:19:09;89853.03;;;12.26;68.47
9935;BME280;5006;41.828;23.478;2023-04-20T03:20:14;89844.78;;;11.87;68.97
9935;BME280;5006;41.828;23.478;2023-04-20T03:21:20;89847.31;;;12.24;68.97
9935;BME280;5006;41.828;23.478;2023-04-20T03:22:25;89846.31;;;12.14;68.87
9935;BME280;5006;41.828;23.478;2023-04-20T03:23:35;89841.25;;;12.66;67.28
9935;BME280;5006;41.828;23.478;2023-04-20T03:24:41;89844.75;;;12.40;68.14
9935;BME280;5006;41.828;23.478;2023-04-20T03:25:59;89842.09;;;12.13;69.14
9935;BME280;5006;41.828;23.478;2023-04-20T03:27:18;89856.31;;;12.37;69.03
9935;BME280;5006;41.828;23.478;2023-04-20T03:28:40;89847.00;;;12.18;68.41
9935;BME280;5006;41.828;23.478;2023-04-20T03:29:49;89847.34;;;12.20;68.31
9935;BME280;5006;41.828;23.478;2023-04-20T03:30:55;89844.88;;;12.06;69.26
9935;BME280;5006;41.828;23.478;2023-04-20T03:32:02;89847.81;;;12.15;68.04
9935;BME280;5006;41.828;23.478;2023-04-20T03:33:07;89852.63;;;12.27;67.96
9935;BME280;5006;41.828;23.478;2023-04-20T03:34:13;89852.16;;;12.32;67.94
9935;BME280;5006;41.828;23.478;2023-04-20T03:35:19;89859.66;;;12.44;68.48
9935;BME280;5006;41.828;23.478;2023-04-20T03:36:25;89863.94;;;12.88;67.14
9935;BME280;5006;41.828;23.478;2023-04-20T03:37:35;89870.28;;;13.43;65.86
9935;BME280;5006;41.828;23.478;2023-04-20T03:38:40;89864.47;;;13.44;65.25
9935;BME280;5006;41.828;23.478;2023-04-20T03:39:46;89871.16;;;13.17;65.32
9935;BME280;5006;41.828;23.478;2023-04-20T03:40:52;89867.75;;;13.13;65.80
9935;BME280;5006;41.828;23.478;2023-04-20T03:41:58;89865.84;;;13.33;65.67
9935;BME280;5006;41.828;23.478;2023-04-20T03:43:05;89872.13;;;13.46;65.25
9935;BME280;5006;41.828;23.478;2023-04-20T03:44:11;89864.66;;;13.14;66.45
9935;BME280;5006;41.828;23.478;2023-04-20T03:45:17;89871.00;;;13.24;66.72
9935;BME280;5006;41.828;23.478;2023-04-20T03:46:23;89866.41;;;13.83;66.24
9935;BME280;5006;41.828;23.478;2023-04-20T03:47:28;89875.94;;;13.68;66.09
9935;BME280;5006;41.828;23.478;2023-04-20T03:48:34;89872.53;;;13.44;67.19
9935;BME280;5006;41.828;23.478;2023-04-20T03:49:40;89871.75;;;13.47;67.28
9935;BME280;5006;41.828;23.478;2023-04-20T03:50:47;89873.59;;;13.31;67.21
9935;BME280;5006;41.828;23.478;2023-04-20T03:51:51;89882.94;;;13.23;68.13
9935;BME280;5006;41.828;23.478;2023-04-20T03:52:57;89876.47;;;13.40;67.26
9935;BME280;5006;41.828;23.478;2023-04-20T03:54:03;89881.63;;;13.73;65.95
9935;BME280;5006;41.828;23.478;2023-04-20T03:55:10;89876.88;;;12.73;67.39
9935;BME280;5006;41.828;23.478;2023-04-20T03:56:21;89878.16;;;13.11;67.39
9935;BME280;5006;41.828;23.478;2023-04-20T03:57:28;89873.72;;;12.78;67.97
9935;BME280;5006;41.828;23.478;2023-04-20T03:58:35;89877.25;;;12.98;67.47
9935;BME280;5006;41.828;23.478;2023-04-20T03:59:48;89873.81;;;12.71;68.71
9935;BME280;5006;41.828;23.478;2023-04-20T04:01:01;89873.41;;;12.50;69.57
9935;BME280;5006;41.828;23.478;2023-04-20T04:02:08;89873.66;;;13.04;68.45
9935;BME280;5006;41.828;23.478;2023-04-20T04:03:17;89879.00;;;13.08;68.26
9935;BME280;5006;41.828;23.478;2023-04-20T04:04:22;89872.69;;;12.95;69.00
9935;BME280;5006;41.828;23.478;2023-04-20T04:05:28;89870.09;;;13.11;68.44
9935;BME280;5006;41.828;23.478;2023-04-20T04:06:33;89873.34;;;12.76;68.65
9935;BME280;5006;41.828;23.478;2023-04-20T04:07:39;89870.38;;;12.21;69.58
9935;BME280;5006;41.828;23.478;2023-04-20T04:08:45;89878.47;;;12.93;68.28
9935;BME280;5006;41.828;23.478;2023-04-20T04:09:51;89868.59;;;12.11;69.21
9935;BME280;5006;41.828;23.478;2023-04-20T04:10:56;89872.84;;;12.62;68.25
9935;BME280;5006;41.828;23.478;2023-04-20T04:12:04;89876.84;;;12.50;67.68
9935;BME280;5006;41.828;23.478;2023-04-20T04:13:10;89868.72;;;12.54;68.33
9935;BME280;5006;41.828;23.478;2023-04-20T04:14:18;89872.53;;;12.56;68.57
9935;BME280;5006;41.828;23.478;2023-04-20T04:15:24;89879.56;;;12.73;68.40
9935;BME280;5006;41.828;23.478;2023-04-20T04:16:38;89881.59;;;12.66;68.62
9935;BME280;5006;41.828;23.478;2023-04-20T04:17:44;89874.50;;;13.01;67.85
9935;BME280;5006;41.828;23.478;2023-04-20T04:18:49;89874.53;;;12.75;68.38
9935;BME280;5006;41.828;23.478;2023-04-20T04:19:55;89875.56;;;12.58;69.18
9935;BME280;5006;41.828;23.478;2023-04-20T04:21:00;89882.22;;;13.42;67.17
9935;BME280;5006;41.828;23.478;2023-04-20T04:22:07;89881.25;;;12.87;68.01
9935;BME280;5006;41.828;23.478;2023-04-20T04:23:18;89878.50;;;13.55;66.60
9935;BME280;5006;41.828;23.478;2023-04-20T04:24:36;89885.81;;;13.55;65.48
9935;BME280;5006;41.828;23.478;2023-04-20T04:25:47;89879.13;;;13.63;65.88
9935;BME280;5006;41.828;23.478;2023-04-20T04:26:53;89879.59;;;13.38;66.73
9935;BME280;5006;41.828;23.478;2023-04-20T04:28:02;89877.03;;;13.90;66.60
9935;BME280;5006;41.828;23.478;2023-04-20T04:29:09;89882.28;;;13.97;65.94
9935;BME280;5006;41.828;23.478;2023-04-20T04:30:17;89878.81;;;13.77;65.65
9935;BME280;5006;41.828;23.478;2023-04-20T04:31:24;89872.56;;;14.38;65.64
9935;BME280;5006;41.828;23.478;2023-04-20T04:32:31;89871.28;;;13.88;65.90
9935;BME280;5006;41.828;23.478;2023-04-20T04:33:38;89874.19;;;13.97;66.33
9935;BME280;5006;41.828;23.478;2023-04-20T04:34:45;89876.06;;;13.61;66.59
9935;BME280;5006;41.828;23.478;2023-04-20T04:35:53;89873.25;;;13.68;66.65
9935;BME280;5006;41.828;23.478;2023-04-20T04:37:00;89869.38;;;13.49;66.65
9935;BME280;5006;41.828;23.478;2023-04-20T04:38:16;89875.16;;;13.28;66.68
9935;BME280;5006;41.828;23.478;2023-04-20T04:39:26;89873.03;;;13.39;67.27
9935;BME280;5006;41.828;23.478;2023-04-20T04:40:40;89877.97;;;13.21;67.44
9935;BME280;5006;41.828;23.478;2023-04-20T04:41:49;89879.34;;;13.10;66.87
9935;BME280;5006;41.828;23.478;2023-04-20T04:43:08;89883.16;;;13.12;67.23
9935;BME280;5006;41.828;23.478;2023-04-20T04:44:15;89874.31;;;13.90;66.04
9935;BME280;5006;41.828;23.478;2023-04-20T04:45:22;89878.22;;;13.69;66.29
9935;BME280;5006;41.828;23.478;2023-04-20T04:46:30;89874.56;;;13.79;66.30
9935;BME280;5006;41.828;23.478;2023-04-20T04:47:35;89865.63;;;13.43;66.33
9935;BME280;5006;41.828;23.478;2023-04-20T04:48:41;89881.44;;;13.22;65.35
9935;BME280;5006;41.828;23.478;2023-04-20T04:49:47;89879.25;;;13.95;64.91
9935;BME280;5006;41.828;23.478;2023-04-20T04:50:53;89881.56;;;12.92;65.14
9935;BME280;5006;41.828;23.478;2023-04-20T04:51:59;89876.69;;;13.29;65.43
9935;BME280;5006;41.828;23.478;2023-04-20T04:53:06;89885.13;;;13.70;65.20
9935;BME280;5006;41.828;23.478;2023-04-20T04:54:10;89880.53;;;14.06;64.45
9935;BME280;5006;41.828;23.478;2023-04-20T04:55:16;89877.13;;;13.67;64.58
9935;BME280;5006;41.828;23.478;2023-04-20T04:56:22;89871.25;;;13.52;64.88
9935;BME280;5006;41.828;23.478;2023-04-20T04:57:28;89877.59;;;13.62;64.74
9935;BME280;5006;41.828;23.478;2023-04-20T04:58:35;89871.75;;;13.67;64.38
9935;BME280;5006;41.828;23.478;2023-04-20T04:59:40;89875.81;;;14.30;63.39
9935;BME280;5006;41.828;23.478;2023-04-20T05:00:47;89877.03;;;13.51;64.13
9935;BME280;5006;41.828;23.478;2023-04-20T05:01:52;89879.50;;;14.20;63.74
9935;BME280;5006;41.828;23.478;2023-04-20T05:02:57;89874.78;;;14.91;62.10
9935;BME280;5006;41.828;23.478;2023-04-20T05:04:03;89885.78;;;14.33;62.38
9935;BME280;5006;41.828;23.478;2023-04-20T05:05:09;89871.25;;;14.07;63.14
9935;BME280;5006;41.828;23.478;2023-04-20T05:06:15;89878.69;;;14.03;63.88
9935;BME280;5006;41.828;23.478;2023-04-20T05:07:22;89880.47;;;14.10;63.43
9935;BME280;5006;41.828;23.478;2023-04-20T05:08:28;89871.31;;;14.59;62.00
9935;BME280;5006;41.828;23.478;2023-04-20T05:09:34;89878.56;;;14.46;63.53
9935;BME280;5006;41.828;23.478;2023-04-20T05:10:39;89877.13;;;14.57;62.32
9935;BME280;5006;41.828;23.478;2023-04-20T05:11:46;89873.38;;;15.47;61.10
9935;BME280;5006;41.828;23.478;2023-04-20T05:12:52;89872.31;;;14.65;62.35
9935;BME280;5006;41.828;23.478;2023-04-20T05:13:57;89888.63;;;15.53;61.26
9935;BME280;5006;41.828;23.478;2023-04-20T05:15:03;89876.38;;;14.89;61.48
9935;BME280;5006;41.828;23.478;2023-04-20T05:16:11;89875.91;;;15.54;61.61
9935;BME280;5006;41.828;23.478;2023-04-20T05:17:16;89877.78;;;16.51;59.50
9935;BME280;5006;41.828;23.478;2023-04-20T05:18:22;89876.78;;;15.92;60.19
9935;BME280;5006;41.828;23.478;2023-04-20T05:19:28;89875.44;;;15.55;61.63
9935;BME280;5006;41.828;23.478;2023-04-20T05:20:33;89876.50;;;15.45;60.88
9935;BME280;5006;41.828;23.478;2023-04-20T05:21:39;89877.19;;;16.31;59.42
9935;BME280;5006;41.828;23.478;2023-04-20T05:22:45;89875.44;;;16.12;58.90
9935;BME280;5006;41.828;23.478;2023-04-20T05:23:51;89878.47;;;16.14;59.42
9935;BME280;5006;41.828;23.478;2023-04-20T05:24:56;89891.69;;;15.84;59.78
9935;BME280;5006;41.828;23.478;2023-04-20T05:26:02;89877.97;;;15.34;60.84
9935;BME280;5006;41.828;23.478;2023-04-20T05:27:08;89872.88;;;15.52;60.01
9935;BME280;5006;41.828;23.478;2023-04-20T05:28:14;89883.09;;;15.73;59.33
9935;BME280;5006;41.828;23.478;2023-04-20T05:29:21;89884.34;;;15.56;59.50
9935;BME280;5006;41.828;23.478;2023-04-20T05:30:26;89878.56;;;14.94;61.16
9935;BME280;5006;41.828;23.478;2023-04-20T05:31:34;89881.19;;;14.97;61.32
9935;BME280;5006;41.828;23.478;2023-04-20T05:32:39;89883.72;;;15.93;60.41
9935;BME280;5006;41.828;23.478;2023-04-20T05:33:44;89886.06;;;15.18;60.31
9935;BME280;5006;41.828;23.478;2023-04-20T05:34:49;89882.28;;;15.00;60.96
9935;BME280;5006;41.828;23.478;2023-04-20T05:35:55;89881.34;;;15.06;61.64
9935;BME280;5006;41.828;23.478;2023-04-20T05:37:02;89885.47;;;14.63;61.86
9935;BME280;5006;41.828;23.478;2023-04-20T05:38:08;89882.44;;;14.77;61.51
9935;BME280;5006;41.828;23.478;2023-04-20T05:39:13;89893.38;;;15.17;60.40
9935;BME280;5006;41.828;23.478;2023-04-20T05:40:19;89894.44;;;15.96;59.15
9935;BME280;5006;41.828;23.478;2023-04-20T05:41:26;89890.16;;;15.54;59.29
9935;BME280;5006;41.828;23.478;2023-04-20T05:42:31;89894.75;;;15.41;59.51
9935;BME280;5006;41.828;23.478;2023-04-20T05:43:38;89892.66;;;15.17;60.05
9935;BME280;5006;41.828;23.478;2023-04-20T05:44:42;89896.13;;;15.33;60.04
9935;BME280;5006;41.828;23.478;2023-04-20T05:45:48;89891.91;;;15.01;61.07
9935;BME280;5006;41.828;23.478;2023-04-20T05:46:56;89899.81;;;14.76;61.16
9935;BME280;5006;41.828;23.478;2023-04-20T05:48:00;89898.47;;;15.15;60.54
9935;BME280;5006;41.828;23.478;2023-04-20T05:49:06;89890.81;;;15.30;60.01
9935;BME280;5006;41.828;23.478;2023-04-20T05:50:12;89894.59;;;14.85;60.81
9935;BME280;5006;41.828;23.478;2023-04-20T05:51:18;89894.28;;;14.83;61.05
9935;BME280;5006;41.828;23.478;2023-04-20T05:52:23;89888.84;;;14.67;61.97
9935;BME280;5006;41.828;23.478;2023-04-20T05:53:29;89890.41;;;14.48;61.15
9935;BME280;5006;41.828;23.478;2023-04-20T05:54:34;89894.41;;;14.44;61.96
9935;BME280;5006;41.828;23.478;2023-04-20T05:55:40;89892.75;;;14.82;60.93
9935;BME280;5006;41.828;23.478;2023-04-20T05:56:45;89896.63;;;14.97;61.28
9935;BME280;5006;41.828;23.478;2023-04-20T05:57:52;89894.22;;;14.51;61.02
9935;BME280;5006;41.828;23.478;2023-04-20T05:58:58;89893.50;;;14.98;60.38